Time;durP1;ratioP1;P1;durP2;ratioP2;P2;SDS_P1;SDS_P2;PMS_P1;PMS_P2;Temp;Humidity;BMP_temperature;BMP_pressure;BME280_temperature;BME280_humidity;BME280_pressure;Samples;Min_cycle;Max_cycle;Signal;HPM_P1;HPM_P2
2022/12/25 00:01:20;;;;;;;;;;;;;;;;;;5114265;27;2045;-38
2022/12/25 00:03:47;;;;;;;;;;;;;;;;;;5113897;28;1883;-39
2022/12/25 00:06:14;;;;;;;;;;;;;;;;;;5114247;28;1905;-38
2022/12/25 00:08:42;;;;;;;;;;;;;;;;;;5114268;28;2123;-38
2022/12/25 00:11:13;;;;;;;;;;;;;;;;;;5113995;28;2057;-38
2022/12/25 00:13:41;;;;;;;;;;;;;;;;;;5114230;28;2070;-39
2022/12/25 00:16:09;;;;;;;;;;;;;;;;;;5114266;28;2075;-38
2022/12/25 00:18:36;;;;;;;;;;;;;;;;;;5113825;28;2130;-47
2022/12/25 00:21:04;;;;;;;;;;;;;;;;;;5113546;28;2092;-38
2022/12/25 00:23:32;;;;;;;;;;;;;;;;;;5112506;28;1945;-38
2022/12/25 00:26:02;;;;;;;;;;;;;;;;;;5114188;28;1939;-38
2022/12/25 00:28:29;;;;;;;;;;;;;;;;;;5113735;28;2053;-38
2022/12/25 00:30:56;;;;;;;;;;;;;;;;;;5113594;28;2075;-38
2022/12/25 00:33:25;;;;;;;;;;;;;;;;;;5113484;28;1916;-38
2022/12/25 00:35:59;;;;;;;;;;;;;;;;;;5113376;28;2161;-38
2022/12/25 00:38:27;;;;;;;;;;;;;;;;;;5113669;28;2045;-38
2022/12/25 00:40:54;;;;;;;;;;;;;;;;;;5113493;28;1906;-38
2022/12/25 00:43:21;;;;;;;;;;;;;;;;;;5113027;28;2014;-39
2022/12/25 00:45:59;;;;;;;;;;;;;;;;;;5113554;28;2017;-39
2022/12/25 00:48:27;;;;;;;;;;;;;;;;;;5113366;28;2033;-38
2022/12/25 00:50:58;;;;;;;;;;;;;;;;;;5113402;28;2303;-38
2022/12/25 00:53:25;;;;;;;;;;;;;;;;;;5112913;28;2128;-39
2022/12/25 00:55:57;;;;;;;;;;;;;;;;;;5112477;27;1911;-38
2022/12/25 00:58:25;;;;;;;;;;;;;;;;;;5113251;28;1812;-38
2022/12/25 01:00:52;;;;;;;;;;;;;;;;;;5113021;28;2044;-39
2022/12/25 01:03:19;;;;;;;;;;;;;;;;;;5112913;28;2137;-39
2022/12/25 01:05:54;;;;;;;;;;;;;;;;;;5112991;28;2182;-38
2022/12/25 01:08:22;;;;;;;;;;;;;;;;;;5112878;28;2064;-39
2022/12/25 01:10:52;;;;;;;;;;;;;;;;;;5112924;28;2033;-38
2022/12/25 01:13:20;;;;;;;;;;;;;;;;;;5112644;28;1367;-39
2022/12/25 01:15:47;;;;;;;;;;;;;;;;;;5112809;28;1886;-38
2022/12/25 01:18:14;;;;;;;;;;;;;;;;;;5112918;28;2250;-38
2022/12/25 01:20:41;;;;;;;;;;;;;;;;;;5111413;28;1975;-45
2022/12/25 01:23:10;;;;;;;;;;;;;;;;;;5112557;28;2030;-38
2022/12/25 01:25:37;;;;;;;;;;;;;;;;;;5112677;28;2007;-38
2022/12/25 01:28:05;;;;;;;;;;;;;;;;;;5112426;28;2073;-39
2022/12/25 01:30:32;;;;;;;;;;;;;;;;;;5112439;28;1949;-39
2022/12/25 01:32:59;;;;;;;;;;;;;;;;;;5112556;28;2103;-38
2022/12/25 01:35:26;;;;;;;;;;;;;;;;;;5112035;28;2121;-38
2022/12/25 01:37:54;;;;;;;;;;;;;;;;;;5112319;28;1938;-39
2022/12/25 01:40:21;;;;;;;;;;;;;;;;;;5110761;28;1967;-39
2022/12/25 01:42:49;;;;;;;;;;;;;;;;;;5112004;28;2187;-38
2022/12/25 01:45:37;;;;;;;;;;;;;;;;;;5112017;28;1835;-38
2022/12/25 01:48:07;;;;;;;;;;;;;;;;;;5112508;28;2084;-40
2022/12/25 01:50:35;;;;;;;;;;;;;;;;;;5112051;28;2214;-38
2022/12/25 01:53:03;;;;;;;;;;;;;;;;;;5111927;28;1887;-38
2022/12/25 01:55:31;;;;;;;;;;;;;;;;;;5111969;28;1912;-38
2022/12/25 01:58:01;;;;;;;;;;;;;;;;;;5111872;28;1910;-38
2022/12/25 02:00:28;;;;;;;;;;;;;;;;;;5111853;28;1911;-39
2022/12/25 02:02:56;;;;;;;;;;;;;;;;;;5112038;28;1685;-39
2022/12/25 02:05:28;;;;;;;;;;;;;;;;;;5111785;28;1792;-39
2022/12/25 02:07:56;;;;;;;;;;;;;;;;;;5111881;28;1971;-39
2022/12/25 02:10:24;;;;;;;;;;;;;;;;;;5111844;28;1795;-39
2022/12/25 02:12:52;;;;;;;;;;;;;;;;;;5111809;28;1636;-38
2022/12/25 02:15:20;;;;;;;;;;;;;;;;;;5111593;28;1937;-38
2022/12/25 02:18:10;;;;;;;;;;;;;;;;;;5111518;28;2374;-39
2022/12/25 02:20:50;;;;;;;;;;;;;;;;;;5103533;28;1962;-38
2022/12/25 02:23:33;;;;;;;;;;;;;;;;;;5111620;28;2104;-39
2022/12/25 02:26:17;;;;;;;;;;;;;;;;;;5111140;28;2164;-39
2022/12/25 02:28:52;;;;;;;;;;;;;;;;;;5111375;28;2160;-38
2022/12/25 02:31:32;;;;;;;;;;;;;;;;;;5111476;28;1983;-38
2022/12/25 02:34:28;;;;;;;;;;;;;;;;;;5111354;28;1861;-38
2022/12/25 02:37:14;;;;;;;;;;;;;;;;;;5078626;28;1914;-39
2022/12/25 02:39:57;;;;;;;;;;;;;;;;;;5091476;28;1911;-38
2022/12/25 03:07:54;;;;;;;;;;;;;;;;;;5115289;28;1643;-39
2022/12/25 03:13:18;;;;;;;;;;;;;;;;;;5115029;28;1921;-38
2022/12/25 03:18:33;;;;;;;;;;;;;;;;;;5114608;28;2113;-38
2022/12/25 03:32:09;;;;;;;;;;;;;;;;;;5115082;28;2152;-39
2022/12/25 04:36:34;;;;;;;;;;;;;;;;;;5113662;28;1853;-38
2022/12/25 04:39:01;;;;;;;;;;;;;;;;;;5113169;28;1956;-38
2022/12/25 04:41:28;;;;;;;;;;;;;;;;;;5113406;28;2016;-39
2022/12/25 04:43:55;;;;;;;;;;;;;;;;;;5113609;28;2297;-38
2022/12/25 04:46:22;;;;;;;;;;;;;;;;;;5113319;27;2030;-38
2022/12/25 04:48:50;;;;;;;;;;;;;;;;;;5112279;28;1863;-38
2022/12/25 04:51:18;;;;;;;;;;;;;;;;;;5113313;28;2189;-37
2022/12/25 04:53:46;;;;;;;;;;;;;;;;;;5113504;28;2107;-38
2022/12/25 04:56:13;;;;;;;;;;;;;;;;;;5113345;28;1898;-38
2022/12/25 04:58:41;;;;;;;;;;;;;;;;;;5111767;28;2287;-37
2022/12/25 05:01:09;;;;;;;;;;;;;;;;;;5113304;28;2088;-38
2022/12/25 05:03:36;;;;;;;;;;;;;;;;;;5113129;28;1739;-38
2022/12/25 05:06:03;;;;;;;;;;;;;;;;;;5112917;28;2038;-38
2022/12/25 05:08:31;;;;;;;;;;;;;;;;;;5113012;28;2091;-38
2022/12/25 05:10:59;;;;;;;;;;;;;;;;;;5112536;28;2218;-37
2022/12/25 05:13:26;;;;;;;;;;;;;;;;;;5111736;28;1956;-38
2022/12/25 05:15:54;;;;;;;;;;;;;;;;;;5112837;28;2107;-37
2022/12/25 05:18:21;;;;;;;;;;;;;;;;;;5112269;28;2080;-38
2022/12/25 05:20:54;;;;;;;;;;;;;;;;;;5112652;28;2064;-38
2022/12/25 05:23:21;;;;;;;;;;;;;;;;;;5112415;28;2051;-38
2022/12/25 05:25:48;;;;;;;;;;;;;;;;;;5112581;28;1969;-38
2022/12/25 05:28:15;;;;;;;;;;;;;;;;;;5112726;28;2031;-38
2022/12/25 05:30:45;;;;;;;;;;;;;;;;;;5112756;28;2274;-38
2022/12/25 05:33:12;;;;;;;;;;;;;;;;;;5112430;28;1917;-37
2022/12/25 05:35:39;;;;;;;;;;;;;;;;;;5112387;28;2176;-38
2022/12/25 05:38:06;;;;;;;;;;;;;;;;;;5112598;28;2140;-39
2022/12/25 05:40:37;;;;;;;;;;;;;;;;;;5112323;28;1974;-38
2022/12/25 05:43:04;;;;;;;;;;;;;;;;;;5112303;28;1904;-38
2022/12/25 05:45:31;;;;;;;;;;;;;;;;;;5112328;28;1833;-39
2022/12/25 05:47:58;;;;;;;;;;;;;;;;;;5112177;28;1948;-39
2022/12/25 05:50:25;;;;;;;;;;;;;;;;;;5112320;28;2129;-38
2022/12/25 05:53:06;;;;;;;;;;;;;;;;;;5112126;28;1697;-38
2022/12/25 05:55:34;;;;;;;;;;;;;;;;;;5111952;28;2096;-38
2022/12/25 05:58:02;;;;;;;;;;;;;;;;;;5112009;28;2051;-37
2022/12/25 06:00:29;;;;;;;;;;;;;;;;;;5112027;28;1877;-38
2022/12/25 06:02:56;;;;;;;;;;;;;;;;;;5111917;28;2248;-38
2022/12/25 06:05:24;;;;;;;;;;;;;;;;;;5112053;28;1833;-38
2022/12/25 06:07:51;;;;;;;;;;;;;;;;;;5111728;28;1832;-38
2022/12/25 06:10:18;;;;;;;;;;;;;;;;;;5111936;28;2036;-38
2022/12/25 06:12:47;;;;;;;;;;;;;;;;;;5111518;28;1897;-38
2022/12/25 06:15:14;;;;;;;;;;;;;;;;;;5112019;28;1601;-38
2022/12/25 06:17:41;;;;;;;;;;;;;;;;;;5110905;28;1994;-38
2022/12/25 06:20:09;;;;;;;;;;;;;;;;;;5106020;28;1894;-37
2022/12/25 06:22:36;;;;;;;;;;;;;;;;;;5110566;27;1898;-38
2022/12/25 06:25:03;;;;;;;;;;;;;;;;;;5111304;28;2203;-38
2022/12/25 06:27:30;;;;;;;;;;;;;;;;;;5111729;28;1855;-38
2022/12/25 06:29:57;;;;;;;;;;;;;;;;;;5111297;28;1736;-38
2022/12/25 06:32:24;;;;;;;;;;;;;;;;;;5126915;27;1954;-38
2022/12/25 06:34:52;;;;;;;;;;;;;;;;;;5111529;28;1794;-38
2022/12/25 06:37:19;;;;;;;;;;;;;;;;;;5111543;28;1858;-38
2022/12/25 06:39:46;;;;;;;;;;;;;;;;;;5111599;28;2022;-38
2022/12/25 06:42:14;;;;;;;;;;;;;;;;;;5111508;28;2047;-38
2022/12/25 06:44:41;;;;;;;;;;;;;;;;;;5111761;28;2102;-37
2022/12/25 06:47:08;;;;;;;;;;;;;;;;;;5111616;28;1787;-38
2022/12/25 06:49:35;;;;;;;;;;;;;;;;;;5111105;28;1828;-38
2022/12/25 06:52:02;;;;;;;;;;;;;;;;;;5111543;28;2047;-38
2022/12/25 06:54:29;;;;;;;;;;;;;;;;;;5111068;28;1961;-37
2022/12/25 06:56:57;;;;;;;;;;;;;;;;;;5111496;28;1977;-38
2022/12/25 06:59:24;;;;;;;;;;;;;;;;;;5111289;28;1910;-38
2022/12/25 07:01:52;;;;;;;;;;;;;;;;;;5111150;28;1909;-38
2022/12/25 07:04:24;;;;;;;;;;;;;;;;;;5111004;28;1946;-38
2022/12/25 07:06:54;;;;;;;;;;;;;;;;;;5111025;28;2228;-38
2022/12/25 07:09:21;;;;;;;;;;;;;;;;;;5111118;28;1860;-38
2022/12/25 07:11:48;;;;;;;;;;;;;;;;;;5109764;28;1693;-38
2022/12/25 07:14:17;;;;;;;;;;;;;;;;;;5111148;28;1985;-37
2022/12/25 07:16:49;;;;;;;;;;;;;;;;;;5111213;28;2209;-38
2022/12/25 07:19:18;;;;;;;;;;;;;;;;;;5110661;28;1892;-37
2022/12/25 07:21:46;;;;;;;;;;;;;;;;;;5111190;28;2002;-39
2022/12/25 07:24:20;;;;;;;;;;;;;;;;;;5111325;28;1242;-38
2022/12/25 07:26:48;;;;;;;;;;;;;;;;;;5111130;28;1979;-38
2022/12/25 07:29:15;;;;;;;;;;;;;;;;;;5111226;28;1872;-38
2022/12/25 07:31:42;;;;;;;;;;;;;;;;;;5110902;28;2190;-37
2022/12/25 07:34:09;;;;;;;;;;;;;;;;;;5114632;28;1827;-39
2022/12/25 07:36:36;;;;;;;;;;;;;;;;;;5114494;28;1864;-38
2022/12/25 07:39:04;;;;;;;;;;;;;;;;;;5114736;28;1974;-38
2022/12/25 07:41:31;;;;;;;;;;;;;;;;;;5114553;28;1913;-38
2022/12/25 07:44:12;;;;;;;;;;;;;;;;;;5114521;28;1662;-38
2022/12/25 07:46:40;;;;;;;;;;;;;;;;;;5114457;28;2079;-38
2022/12/25 07:49:07;;;;;;;;;;;;;;;;;;5114452;28;2028;-37
2022/12/25 07:51:34;;;;;;;;;;;;;;;;;;5114673;28;2014;-38
2022/12/25 07:54:02;;;;;;;;;;;;;;;;;;5114402;28;1965;-38
2022/12/25 07:56:29;;;;;;;;;;;;;;;;;;5114210;28;2047;-38
2022/12/25 07:58:56;;;;;;;;;;;;;;;;;;5114149;28;2124;-38
2022/12/25 08:01:25;;;;;;;;;;;;;;;;;;5112948;28;2225;-38
2022/12/25 08:03:53;;;;;;;;;;;;;;;;;;5114385;28;1890;-38
2022/12/25 08:06:22;;;;;;;;;;;;;;;;;;5113969;28;1766;-38
2022/12/25 08:08:49;;;;;;;;;;;;;;;;;;5114124;28;2095;-38
2022/12/25 08:11:16;;;;;;;;;;;;;;;;;;5114315;28;1942;-38
2022/12/25 08:13:43;;;;;;;;;;;;;;;;;;5113889;28;2145;-38
2022/12/25 08:16:10;;;;;;;;;;;;;;;;;;5114183;28;1991;-38
2022/12/25 08:18:38;;;;;;;;;;;;;;;;;;5113676;28;1985;-37
2022/12/25 08:21:07;;;;;;;;;;;;;;;;;;5113622;28;2069;-38
2022/12/25 08:23:35;;;;;;;;;;;;;;;;;;5113654;28;1980;-37
2022/12/25 08:26:03;;;;;;;;;;;;;;;;;;5113814;28;1951;-38
2022/12/25 08:28:32;;;;;;;;;;;;;;;;;;5114069;28;2095;-37
2022/12/25 08:31:04;;;;;;;;;;;;;;;;;;5113791;28;1962;-37
2022/12/25 08:33:31;;;;;;;;;;;;;;;;;;5113632;28;1942;-37
2022/12/25 08:36:02;;;;;;;;;;;;;;;;;;5113322;28;2154;-38
2022/12/25 08:38:29;;;;;;;;;;;;;;;;;;5113513;28;2113;-38
2022/12/25 08:40:57;;;;;;;;;;;;;;;;;;5113508;27;2110;-38
2022/12/25 08:43:24;;;;;;;;;;;;;;;;;;5113173;28;1989;-38
2022/12/25 08:45:51;;;;;;;;;;;;;;;;;;5112691;28;2060;-38
2022/12/25 08:48:18;;;;;;;;;;;;;;;;;;5113600;28;2118;-37
2022/12/25 08:50:46;;;;;;;;;;;;;;;;;;5113454;28;1625;-37
2022/12/25 08:53:14;;;;;;;;;;;;;;;;;;5113355;28;1754;-38
2022/12/25 08:55:41;;;;;;;;;;;;;;;;;;5113202;28;2042;-38
2022/12/25 08:58:08;;;;;;;;;;;;;;;;;;5113162;28;1944;-38
2022/12/25 09:00:36;;;;;;;;;;;;;;;;;;5113131;28;1802;-37
2022/12/25 09:03:03;;;;;;;;;;;;;;;;;;5112949;28;2019;-38
2022/12/25 09:05:33;;;;;;;;;;;;;;;;;;5112980;28;2135;-37
2022/12/25 09:08:00;;;;;;;;;;;;;;;;;;5113083;27;1482;-38
2022/12/25 09:10:27;;;;;;;;;;;;;;;;;;5112927;28;1440;-37
2022/12/25 09:12:55;;;;;;;;;;;;;;;;;;5113098;28;1930;-38
2022/12/25 09:15:22;;;;;;;;;;;;;;;;;;5112573;28;2220;-37
2022/12/25 09:17:49;;;;;;;;;;;;;;;;;;5112715;28;1262;-38
2022/12/25 09:20:16;;;;;;;;;;;;;;;;;;5112334;28;1914;-38
2022/12/25 09:22:44;;;;;;;;;;;;;;;;;;5112878;28;2167;-38
2022/12/25 09:25:11;;;;;;;;;;;;;;;;;;5112729;28;1892;-38
2022/12/25 09:27:38;;;;;;;;;;;;;;;;;;5112303;28;2031;-38
2022/12/25 09:30:05;;;;;;;;;;;;;;;;;;5112574;28;1729;-38
2022/12/25 09:32:33;;;;;;;;;;;;;;;;;;5112240;28;1879;-37
2022/12/25 09:35:00;;;;;;;;;;;;;;;;;;5111719;28;1770;-38
2022/12/25 09:37:28;;;;;;;;;;;;;;;;;;5112482;28;1850;-37
2022/12/25 09:39:55;;;;;;;;;;;;;;;;;;5111093;28;2263;-38
2022/12/25 09:42:24;;;;;;;;;;;;;;;;;;5112308;28;2212;-38
2022/12/25 09:44:56;;;;;;;;;;;;;;;;;;5112439;28;1932;-38
2022/12/25 09:47:26;;;;;;;;;;;;;;;;;;5112020;28;2031;-38
2022/12/25 09:50:06;;;;;;;;;;;;;;;;;;5112289;28;2103;-38
2022/12/25 09:53:08;;;;;;;;;;;;;;;;;;5111873;28;1985;-38
2022/12/25 09:55:39;;;;;;;;;;;;;;;;;;5088908;28;2089;-37
2022/12/25 09:58:11;;;;;;;;;;;;;;;;;;5108686;28;1995;-38
2022/12/25 10:00:56;;;;;;;;;;;;;;;;;;5111940;28;2061;-37
2022/12/25 10:03:53;;;;;;;;;;;;;;;;;;5111704;28;1969;-38
2022/12/25 10:06:26;;;;;;;;;;;;;;;;;;5112018;28;1979;-39
2022/12/25 10:09:29;;;;;;;;;;;;;;;;;;5111999;28;1951;-38
2022/12/25 10:11:56;;;;;;;;;;;;;;;;;;5088993;28;2022;-38
2022/12/25 10:14:58;;;;;;;;;;;;;;;;;;5107287;28;1090;-38
2022/12/25 10:17:40;;;;;;;;;;;;;;;;;;5089150;28;1756;-41
2022/12/25 10:20:14;;;;;;;;;;;;;;;;;;5109307;28;1943;-40
2022/12/25 10:22:47;;;;;;;;;;;;;;;;;;5111345;28;1975;-38
2022/12/25 10:25:15;;;;;;;;;;;;;;;;;;5110570;28;1274;-38
2022/12/25 10:27:43;;;;;;;;;;;;;;;;;;5111594;28;2106;-37
2022/12/25 10:30:14;;;;;;;;;;;;;;;;;;5111684;28;1649;-38
2022/12/25 10:32:43;;;;;;;;;;;;;;;;;;5111151;28;2248;-40
2022/12/25 10:35:14;;;;;;;;;;;;;;;;;;5111350;28;1962;-38
2022/12/25 10:37:42;;;;;;;;;;;;;;;;;;5111679;28;2071;-37
2022/12/25 10:40:32;;;;;;;;;;;;;;;;;;5111555;28;1843;-38
2022/12/25 10:43:08;;;;;;;;;;;;;;;;;;5102932;28;2227;-40
2022/12/25 10:45:43;;;;;;;;;;;;;;;;;;5111329;28;2025;-38
2022/12/25 10:48:15;;;;;;;;;;;;;;;;;;5110983;28;2192;-40
2022/12/25 10:50:42;;;;;;;;;;;;;;;;;;5111302;28;1615;-38
2022/12/25 10:53:16;;;;;;;;;;;;;;;;;;5111440;28;1872;-37
2022/12/25 10:55:53;;;;;;;;;;;;;;;;;;5111495;28;2115;-37
2022/12/25 10:58:21;;;;;;;;;;;;;;;;;;5111047;28;2172;-38
2022/12/25 11:00:57;;;;;;;;;;;;;;;;;;5111583;28;2173;-38
2022/12/25 11:03:27;;;;;;;;;;;;;;;;;;5110925;28;1927;-38
2022/12/25 11:05:54;;;;;;;;;;;;;;;;;;5111259;28;2161;-38
2022/12/25 11:08:23;;;;;;;;;;;;;;;;;;5113550;28;2140;-37
2022/12/25 11:10:52;;;;;;;;;;;;;;;;;;5115107;28;1711;-38
2022/12/25 11:13:21;;;;;;;;;;;;;;;;;;5115236;28;1496;-38
2022/12/25 11:15:49;;;;;;;;;;;;;;;;;;5115154;28;2382;-38
2022/12/25 11:18:18;;;;;;;;;;;;;;;;;;5115553;28;1747;-38
2022/12/25 11:20:49;;;;;;;;;;;;;;;;;;5115193;28;1914;-38
2022/12/25 11:23:21;;;;;;;;;;;;;;;;;;5114873;28;2006;-38
2022/12/25 11:25:57;;;;;;;;;;;;;;;;;;5115004;28;2231;-38
2022/12/25 11:28:25;;;;;;;;;;;;;;;;;;5115062;28;1985;-40
2022/12/25 11:31:12;;;;;;;;;;;;;;;;;;5115068;28;2154;-37
2022/12/25 11:33:43;;;;;;;;;;;;;;;;;;5114032;28;1936;-37
2022/12/25 11:36:18;;;;;;;;;;;;;;;;;;5114823;28;2017;-38
2022/12/25 11:38:45;;;;;;;;;;;;;;;;;;5114982;28;2062;-38
2022/12/25 11:41:17;;;;;;;;;;;;;;;;;;5114790;28;2167;-38
2022/12/25 11:43:50;;;;;;;;;;;;;;;;;;5115360;28;2048;-38
2022/12/25 11:46:20;;;;;;;;;;;;;;;;;;5114570;28;2015;-38
2022/12/25 11:48:54;;;;;;;;;;;;;;;;;;5114725;28;1823;-38
2022/12/25 11:51:27;;;;;;;;;;;;;;;;;;5114485;28;1693;-37
2022/12/25 11:53:58;;;;;;;;;;;;;;;;;;5114604;28;1595;-40
2022/12/25 11:56:27;;;;;;;;;;;;;;;;;;5114341;28;1731;-39
2022/12/25 11:58:59;;;;;;;;;;;;;;;;;;5114603;28;1926;-40
2022/12/25 12:01:32;;;;;;;;;;;;;;;;;;5114467;28;1956;-39
2022/12/25 12:04:00;;;;;;;;;;;;;;;;;;5113817;28;2003;-40
2022/12/25 12:06:45;;;;;;;;;;;;;;;;;;5114473;28;2027;-40
2022/12/25 12:09:31;;;;;;;;;;;;;;;;;;5114228;28;1876;-38
2022/12/25 12:12:10;;;;;;;;;;;;;;;;;;5114060;28;1992;-38
2022/12/25 12:14:42;;;;;;;;;;;;;;;;;;5114086;28;1981;-39
2022/12/25 12:17:13;;;;;;;;;;;;;;;;;;5113879;27;1949;-40
2022/12/25 12:19:41;;;;;;;;;;;;;;;;;;5112603;28;1952;-39
2022/12/25 12:22:22;;;;;;;;;;;;;;;;;;5113861;28;1881;-40
2022/12/25 12:24:53;;;;;;;;;;;;;;;;;;5114039;27;2233;-40
2022/12/25 12:27:49;;;;;;;;;;;;;;;;;;5113992;28;1994;-40
2022/12/25 12:30:22;;;;;;;;;;;;;;;;;;5095560;28;2047;-40
2022/12/25 12:32:51;;;;;;;;;;;;;;;;;;5113917;28;1891;-39
2022/12/25 12:35:26;;;;;;;;;;;;;;;;;;5112708;28;1943;-40
2022/12/25 12:37:55;;;;;;;;;;;;;;;;;;5113137;28;1891;-40
2022/12/25 12:40:22;;;;;;;;;;;;;;;;;;5113676;28;2132;-40
2022/12/25 12:42:51;;;;;;;;;;;;;;;;;;5113658;28;1982;-40
2022/12/25 12:45:19;;;;;;;;;;;;;;;;;;5113922;28;1963;-38
2022/12/25 12:47:48;;;;;;;;;;;;;;;;;;5112637;28;1957;-38
2022/12/25 12:50:44;;;;;;;;;;;;;;;;;;5113212;28;2091;-38
2022/12/25 12:53:16;;;;;;;;;;;;;;;;;;5100397;28;2180;-38
2022/12/25 12:55:43;;;;;;;;;;;;;;;;;;5113109;28;1895;-37
2022/12/25 12:58:22;;;;;;;;;;;;;;;;;;5113304;28;2129;-38
2022/12/25 13:01:04;;;;;;;;;;;;;;;;;;5113225;28;2068;-37
2022/12/25 13:04:00;;;;;;;;;;;;;;;;;;5113138;28;1914;-38
2022/12/25 13:06:27;;;;;;;;;;;;;;;;;;5057768;28;2016;-41
2022/12/25 13:09:06;;;;;;;;;;;;;;;;;;5113127;28;1912;-40
2022/12/25 13:11:41;;;;;;;;;;;;;;;;;;5112923;28;2257;-39
2022/12/25 13:14:13;;;;;;;;;;;;;;;;;;5112623;28;1934;-40
2022/12/25 13:16:42;;;;;;;;;;;;;;;;;;5112791;28;1241;-38
2022/12/25 13:19:17;;;;;;;;;;;;;;;;;;5112833;28;1664;-38
2022/12/25 13:21:55;;;;;;;;;;;;;;;;;;5112869;28;1867;-38
2022/12/25 13:24:24;;;;;;;;;;;;;;;;;;5112983;28;1918;-40
2022/12/25 13:26:51;;;;;;;;;;;;;;;;;;5112829;28;2031;-40
2022/12/25 13:29:22;;;;;;;;;;;;;;;;;;5111528;28;1882;-40
2022/12/25 13:31:50;;;;;;;;;;;;;;;;;;5112386;28;1996;-40
2022/12/25 13:34:22;;;;;;;;;;;;;;;;;;5112496;28;1933;-40
2022/12/25 13:36:49;;;;;;;;;;;;;;;;;;5112527;28;1258;-39
2022/12/25 13:39:17;;;;;;;;;;;;;;;;;;5112662;28;1971;-37
2022/12/25 13:42:04;;;;;;;;;;;;;;;;;;5112528;28;1924;-38
2022/12/25 13:44:40;;;;;;;;;;;;;;;;;;5112429;28;1979;-40
2022/12/25 13:47:17;;;;;;;;;;;;;;;;;;5110844;28;2020;-39
2022/12/25 13:49:45;;;;;;;;;;;;;;;;;;5112742;28;1988;-41
2022/12/25 13:52:15;;;;;;;;;;;;;;;;;;5112248;28;2053;-40
2022/12/25 13:54:59;;;;;;;;;;;;;;;;;;5112278;28;1961;-38
2022/12/25 13:57:29;;;;;;;;;;;;;;;;;;5112070;28;1964;-40
2022/12/25 13:59:56;;;;;;;;;;;;;;;;;;5112616;28;2004;-40
2022/12/25 14:02:27;;;;;;;;;;;;;;;;;;5112299;28;2083;-38
2022/12/25 14:04:55;;;;;;;;;;;;;;;;;;5111823;28;2025;-38
2022/12/25 14:07:23;;;;;;;;;;;;;;;;;;5112080;28;2045;-37
2022/12/25 14:09:53;;;;;;;;;;;;;;;;;;5111685;28;2077;-38
2022/12/25 14:12:21;;;;;;;;;;;;;;;;;;5112553;27;1809;-37
2022/12/25 14:14:49;;;;;;;;;;;;;;;;;;5111889;28;1935;-38
2022/12/25 14:17:17;;;;;;;;;;;;;;;;;;5112057;28;1909;-37
2022/12/25 14:19:44;;;;;;;;;;;;;;;;;;5111438;28;2219;-38
2022/12/25 14:22:19;;;;;;;;;;;;;;;;;;5111562;28;2050;-37
2022/12/25 14:24:49;;;;;;;;;;;;;;;;;;5111238;28;1909;-38
2022/12/25 14:27:22;;;;;;;;;;;;;;;;;;5111831;28;1943;-38
2022/12/25 14:29:50;;;;;;;;;;;;;;;;;;5111645;28;2005;-41
2022/12/25 14:32:22;;;;;;;;;;;;;;;;;;5111661;28;1609;-40
2022/12/25 14:34:51;;;;;;;;;;;;;;;;;;5091012;28;2259;-40
2022/12/25 14:37:24;;;;;;;;;;;;;;;;;;5091230;28;1818;-39
2022/12/25 14:39:59;;;;;;;;;;;;;;;;;;5091180;28;2301;-40
2022/12/25 14:42:27;;;;;;;;;;;;;;;;;;5090724;28;1815;-38
2022/12/25 14:45:15;;;;;;;;;;;;;;;;;;5061979;28;11459;-37
2022/12/25 14:47:49;;;;;;;;;;;;;;;;;;5067009;28;1952;-38
2022/12/25 14:50:36;;;;;;;;;;;;;;;;;;5071238;28;1986;-39
2022/12/25 14:53:03;;;;;;;;;;;;;;;;;;5070639;28;2233;-38
2022/12/25 14:55:30;;;;;;;;;;;;;;;;;;5070939;28;1531;-38
2022/12/25 14:58:06;;;;;;;;;;;;;;;;;;5070853;28;1866;-38
2022/12/25 15:00:35;;;;;;;;;;;;;;;;;;5070865;28;1852;-38
2022/12/25 15:03:04;;;;;;;;;;;;;;;;;;5070613;28;2239;-38
2022/12/25 15:05:35;;;;;;;;;;;;;;;;;;5070964;28;1963;-38
2022/12/25 15:08:11;;;;;;;;;;;;;;;;;;5079108;28;1603;-38
2022/12/25 15:10:39;;;;;;;;;;;;;;;;;;5090883;28;2116;-38
2022/12/25 15:13:27;;;;;;;;;;;;;;;;;;5091310;28;1830;-39
2022/12/25 15:15:56;;;;;;;;;;;;;;;;;;5090972;28;1956;-38
2022/12/25 15:18:27;;;;;;;;;;;;;;;;;;5091009;28;1996;-40
2022/12/25 15:20:55;;;;;;;;;;;;;;;;;;5090754;28;1593;-40
2022/12/25 15:23:24;;;;;;;;;;;;;;;;;;5090851;28;1977;-40
2022/12/25 15:25:51;;;;;;;;;;;;;;;;;;5090777;28;1526;-40
2022/12/25 15:28:18;;;;;;;;;;;;;;;;;;5090808;28;2198;-40
2022/12/25 15:30:46;;;;;;;;;;;;;;;;;;5090852;28;1284;-40
2022/12/25 15:33:14;;;;;;;;;;;;;;;;;;5090436;28;2153;-40
2022/12/25 15:35:43;;;;;;;;;;;;;;;;;;5090649;28;2057;-37
2022/12/25 15:38:12;;;;;;;;;;;;;;;;;;5090718;28;1928;-40
2022/12/25 15:40:39;;;;;;;;;;;;;;;;;;5090674;28;2213;-40
2022/12/25 15:43:08;;;;;;;;;;;;;;;;;;5090718;28;2067;-40
2022/12/25 15:45:46;;;;;;;;;;;;;;;;;;5090415;28;1967;-40
2022/12/25 15:48:13;;;;;;;;;;;;;;;;;;5090615;28;1939;-39
2022/12/25 15:50:41;;;;;;;;;;;;;;;;;;5090136;28;1925;-40
2022/12/25 15:53:09;;;;;;;;;;;;;;;;;;5090937;28;1838;-40
2022/12/25 15:55:37;;;;;;;;;;;;;;;;;;5094113;28;2117;-40
2022/12/25 15:58:05;;;;;;;;;;;;;;;;;;5094081;28;1978;-40
2022/12/25 16:00:32;;;;;;;;;;;;;;;;;;5094333;28;1830;-40
2022/12/25 16:02:59;;;;;;;;;;;;;;;;;;5094336;28;2219;-40
2022/12/25 16:05:27;;;;;;;;;;;;;;;;;;5094005;28;1914;-39
2022/12/25 16:07:54;;;;;;;;;;;;;;;;;;5093637;28;2058;-39
2022/12/25 16:10:21;;;;;;;;;;;;;;;;;;5093394;28;1809;-40
2022/12/25 16:12:48;;;;;;;;;;;;;;;;;;5091757;28;2054;-40
2022/12/25 16:15:16;;;;;;;;;;;;;;;;;;5092023;28;2017;-40
2022/12/25 16:17:43;;;;;;;;;;;;;;;;;;5091728;28;2041;-40
2022/12/25 16:20:10;;;;;;;;;;;;;;;;;;5091541;28;2176;-40
2022/12/25 16:22:40;;;;;;;;;;;;;;;;;;5091628;28;2005;-39
2022/12/25 16:25:11;;;;;;;;;;;;;;;;;;5091493;28;1943;-39
2022/12/25 16:27:39;;;;;;;;;;;;;;;;;;5092975;28;1838;-40
2022/12/25 16:30:06;;;;;;;;;;;;;;;;;;5093563;28;1862;-40
2022/12/25 16:32:34;;;;;;;;;;;;;;;;;;5093679;28;2267;-40
2022/12/25 16:35:01;;;;;;;;;;;;;;;;;;5093061;28;1958;-40
2022/12/25 16:37:28;;;;;;;;;;;;;;;;;;5093142;28;1982;-40
2022/12/25 16:39:55;;;;;;;;;;;;;;;;;;5092636;28;1804;-40
2022/12/25 16:42:22;;;;;;;;;;;;;;;;;;5093245;28;1588;-40
2022/12/25 16:44:53;;;;;;;;;;;;;;;;;;5093260;28;1914;-40
2022/12/25 16:47:20;;;;;;;;;;;;;;;;;;5093142;28;2089;-40
2022/12/25 16:49:47;;;;;;;;;;;;;;;;;;5093103;28;2019;-40
2022/12/25 16:52:14;;;;;;;;;;;;;;;;;;5093036;28;1994;-39
2022/12/25 16:54:41;;;;;;;;;;;;;;;;;;5092992;28;1292;-40
2022/12/25 16:57:08;;;;;;;;;;;;;;;;;;5093152;28;1935;-40
2022/12/25 16:59:35;;;;;;;;;;;;;;;;;;5092933;28;1876;-40
2022/12/25 17:02:03;;;;;;;;;;;;;;;;;;5092886;28;2160;-40
2022/12/25 17:04:30;;;;;;;;;;;;;;;;;;5092229;28;1926;-39
2022/12/25 17:06:57;;;;;;;;;;;;;;;;;;5092185;28;1611;-40
2022/12/25 17:09:24;;;;;;;;;;;;;;;;;;5092753;28;2250;-40
2022/12/25 17:11:51;;;;;;;;;;;;;;;;;;5092598;28;1961;-40
2022/12/25 17:14:18;;;;;;;;;;;;;;;;;;5092618;28;2159;-39
2022/12/25 17:16:46;;;;;;;;;;;;;;;;;;5092790;28;1741;-40
2022/12/25 17:19:20;;;;;;;;;;;;;;;;;;5092300;28;1856;-40
2022/12/25 17:21:47;;;;;;;;;;;;;;;;;;5090749;28;2174;-40
2022/12/25 17:24:15;;;;;;;;;;;;;;;;;;5092380;28;1942;-40
2022/12/25 17:26:42;;;;;;;;;;;;;;;;;;5092347;28;2002;-40
2022/12/25 17:29:10;;;;;;;;;;;;;;;;;;5092216;28;1883;-40
2022/12/25 17:31:39;;;;;;;;;;;;;;;;;;5092206;28;1421;-40
2022/12/25 17:34:07;;;;;;;;;;;;;;;;;;5092165;28;2059;-39
2022/12/25 17:36:35;;;;;;;;;;;;;;;;;;5092179;28;1935;-40
2022/12/25 17:39:03;;;;;;;;;;;;;;;;;;5092338;28;1993;-40
2022/12/25 17:41:30;;;;;;;;;;;;;;;;;;5092568;28;2228;-40
2022/12/25 17:43:57;;;;;;;;;;;;;;;;;;5092110;28;1987;-40
2022/12/25 17:46:26;;;;;;;;;;;;;;;;;;5091597;28;2067;-39
2022/12/25 17:48:55;;;;;;;;;;;;;;;;;;5092161;28;2030;-40
2022/12/25 17:51:24;;;;;;;;;;;;;;;;;;5091889;28;1866;-40
2022/12/25 17:53:55;;;;;;;;;;;;;;;;;;5091950;28;1613;-40
2022/12/25 17:56:23;;;;;;;;;;;;;;;;;;5091728;28;2032;-40
2022/12/25 17:58:54;;;;;;;;;;;;;;;;;;5091736;28;1828;-39
2022/12/25 18:01:22;;;;;;;;;;;;;;;;;;5091629;28;1961;-40
2022/12/25 18:03:50;;;;;;;;;;;;;;;;;;5091763;28;2077;-39
2022/12/25 18:06:19;;;;;;;;;;;;;;;;;;5091563;28;2022;-40
2022/12/25 18:08:46;;;;;;;;;;;;;;;;;;5091344;28;1580;-40
2022/12/25 18:11:15;;;;;;;;;;;;;;;;;;5091439;28;2120;-40
2022/12/25 18:13:43;;;;;;;;;;;;;;;;;;5091406;28;2016;-39
2022/12/25 18:16:11;;;;;;;;;;;;;;;;;;5091498;28;1769;-40
2022/12/25 18:18:39;;;;;;;;;;;;;;;;;;5090924;28;2054;-39
2022/12/25 18:21:09;;;;;;;;;;;;;;;;;;5091584;28;1746;-39
2022/12/25 18:23:36;;;;;;;;;;;;;;;;;;5091546;28;1776;-40
2022/12/25 18:26:05;;;;;;;;;;;;;;;;;;5091399;28;2067;-40
2022/12/25 18:28:32;;;;;;;;;;;;;;;;;;5091317;28;1959;-40
2022/12/25 18:31:00;;;;;;;;;;;;;;;;;;5091342;28;1953;-40
2022/12/25 18:33:27;;;;;;;;;;;;;;;;;;5091256;28;1977;-39
2022/12/25 18:35:56;;;;;;;;;;;;;;;;;;5091081;28;1703;-40
2022/12/25 18:38:23;;;;;;;;;;;;;;;;;;5091486;28;1841;-40
2022/12/25 18:40:51;;;;;;;;;;;;;;;;;;5091058;28;1914;-41
2022/12/25 18:43:19;;;;;;;;;;;;;;;;;;5091360;28;2063;-40
2022/12/25 18:45:56;;;;;;;;;;;;;;;;;;5090810;28;2249;-40
2022/12/25 18:48:23;;;;;;;;;;;;;;;;;;5091230;28;1721;-40
2022/12/25 18:50:55;;;;;;;;;;;;;;;;;;5091142;28;2106;-39
2022/12/25 18:53:26;;;;;;;;;;;;;;;;;;5091149;28;1230;-40
2022/12/25 18:55:57;;;;;;;;;;;;;;;;;;5091094;28;1802;-39
2022/12/25 18:58:25;;;;;;;;;;;;;;;;;;5090820;28;2099;-40
2022/12/25 19:00:52;;;;;;;;;;;;;;;;;;5090952;28;2231;-39
2022/12/25 19:03:20;;;;;;;;;;;;;;;;;;5090651;28;1656;-39
2022/12/25 19:05:47;;;;;;;;;;;;;;;;;;5090714;28;2028;-40
2022/12/25 19:08:15;;;;;;;;;;;;;;;;;;5091059;28;2143;-40